Time;durP1;ratioP1;P1;durP2;ratioP2;P2;SDS_P1;SDS_P2;PMS_P1;PMS_P2;Temp;Humidity;BMP_temperature;BMP_pressure;BME280_temperature;BME280_humidity;BME280_pressure;Samples;Min_cycle;Max_cycle;Signal;HPM_P1;HPM_P2
2021/10/06 00:01:00;;;;;;;4.83;1.23;;;;;;;12.64;68.99;96491.28;5091305;28;20465;-66
2021/10/06 00:03:26;;;;;;;1.97;1.20;;;;;;;12.78;68.42;96489.63;5086811;28;20264;-64
2021/10/06 00:05:52;;;;;;;4.23;1.07;;;;;;;12.68;68.68;96495.19;5092420;28;20740;-65
2021/10/06 00:08:18;;;;;;;4.70;1.30;;;;;;;12.62;68.81;96492.47;5090499;28;20201;-65
2021/10/06 00:10:44;;;;;;;2.30;1.20;;;;;;;12.67;68.48;96492.72;5091162;28;20423;-65
2021/10/06 00:13:10;;;;;;;1.27;1.13;;;;;;;12.66;68.50;96501.63;5091803;28;20423;-65
2021/10/06 00:15:36;;;;;;;4.13;1.10;;;;;;;12.45;69.57;96505.78;5091909;28;20227;-64
2021/10/06 00:18:01;;;;;;;4.70;1.43;;;;;;;12.49;69.15;96507.06;5090396;28;20209;-65
2021/10/06 00:20:27;;;;;;;3.13;1.27;;;;;;;12.58;68.45;96513.03;5091835;28;20644;-66
2021/10/06 00:22:52;;;;;;;2.70;1.10;;;;;;;12.45;69.23;96503.16;5091659;28;20407;-64
2021/10/06 00:25:18;;;;;;;2.03;1.10;;;;;;;12.37;69.35;96509.31;5090621;28;20697;-65
2021/10/06 00:27:44;;;;;;;2.50;1.37;;;;;;;12.53;68.85;96508.34;5092076;28;20198;-64
2021/10/06 00:30:10;;;;;;;2.40;1.23;;;;;;;11.96;70.98;96512.31;5091251;28;20251;-65
2021/10/06 00:32:35;;;;;;;3.93;1.50;;;;;;;12.04;71.33;96512.28;5092067;28;20186;-64
2021/10/06 00:35:01;;;;;;;4.50;1.30;;;;;;;11.80;71.82;96508.00;5091605;28;20432;-64
2021/10/06 00:37:26;;;;;;;9.57;1.43;;;;;;;11.84;71.46;96515.34;5091472;28;20197;-66
2021/10/06 00:39:52;;;;;;;1.90;1.00;;;;;;;12.19;70.47;96516.72;5091359;28;20185;-66
2021/10/06 00:42:17;;;;;;;9.00;1.63;;;;;;;12.00;70.34;96508.34;5091600;28;20185;-65
2021/10/06 00:44:43;;;;;;;5.53;1.20;;;;;;;12.08;70.52;96500.41;5091798;28;20185;-66
2021/10/06 00:47:13;;;;;;;2.70;1.43;;;;;;;11.77;71.56;96508.38;5093822;28;20189;-66
2021/10/06 00:49:39;;;;;;;3.73;1.30;;;;;;;11.90;70.93;96510.41;5092187;28;20201;-64
2021/10/06 00:52:05;;;;;;;2.73;1.20;;;;;;;12.03;70.53;96499.34;5089921;28;20861;-65
2021/10/06 00:54:30;;;;;;;2.50;1.10;;;;;;;11.80;71.00;96503.59;5091755;28;20455;-66
2021/10/06 00:56:56;;;;;;;7.40;1.30;;;;;;;12.03;70.48;96508.00;5092820;28;20822;-65
2021/10/06 00:59:21;;;;;;;3.50;1.33;;;;;;;11.85;70.86;96503.06;5091750;28;20285;-64
2021/10/06 01:01:47;;;;;;;3.83;0.87;;;;;;;11.97;70.64;96508.72;5093812;28;20583;-65
2021/10/06 01:04:13;;;;;;;2.87;1.13;;;;;;;12.04;70.44;96503.56;5094091;28;20186;-64
2021/10/06 01:06:39;;;;;;;3.53;1.30;;;;;;;11.86;70.86;96501.22;5094051;28;20173;-63
2021/10/06 01:09:05;;;;;;;4.40;1.20;;;;;;;12.11;70.71;96504.50;5093048;28;20211;-65
2021/10/06 01:11:31;;;;;;;1.70;1.10;;;;;;;11.94;70.75;96506.44;5091816;28;20419;-65
2021/10/06 01:13:57;;;;;;;2.60;1.03;;;;;;;12.13;69.83;96503.31;5091425;28;20181;-65
2021/10/06 01:16:23;;;;;;;2.03;1.07;;;;;;;12.17;69.78;96495.88;5091661;28;20181;-66
2021/10/06 01:18:49;;;;;;;3.50;1.40;;;;;;;12.11;70.13;96494.00;5089471;28;20776;-67
2021/10/06 01:21:17;;;;;;;4.37;1.30;;;;;;;12.06;70.18;96497.16;5071452;28;21016;-65
2021/10/06 01:23:47;;;;;;;4.73;1.13;;;;;;;11.49;72.11;96501.84;5080703;28;20443;-65
2021/10/06 01:26:18;;;;;;;5.70;1.27;;;;;;;11.89;71.30;96506.97;5095290;28;20408;-65
2021/10/06 01:28:46;;;;;;;3.87;1.33;;;;;;;12.22;68.61;96506.69;5094707;28;20531;-66
2021/10/06 01:31:12;;;;;;;5.43;1.40;;;;;;;12.11;69.48;96520.25;5095015;28;20411;-67
2021/10/06 01:33:37;;;;;;;3.53;1.37;;;;;;;12.58;68.10;96515.66;5095398;28;20415;-66
2021/10/06 01:36:03;;;;;;;4.03;0.90;;;;;;;12.69;67.23;96515.22;5095239;28;20284;-66
2021/10/06 01:38:29;;;;;;;2.30;0.90;;;;;;;12.46;67.85;96522.38;5095088;28;20193;-66
2021/10/06 01:40:54;;;;;;;4.40;1.07;;;;;;;12.54;67.79;96527.53;5094646;28;20208;-66
2021/10/06 01:43:20;;;;;;;2.37;1.10;;;;;;;12.64;66.65;96538.59;5095338;28;20173;-65
2021/10/06 01:45:46;;;;;;;1.70;1.00;;;;;;;12.55;67.20;96539.69;5095365;28;20173;-66
2021/10/06 01:48:12;;;;;;;3.83;1.07;;;;;;;12.67;66.92;96553.16;5094763;28;20567;-65
2021/10/06 01:50:41;;;;;;;3.93;1.20;;;;;;;12.73;66.12;96555.91;5094909;28;20222;-66
2021/10/06 01:53:07;;;;;;;3.13;1.20;;;;;;;12.69;66.21;96562.53;5093181;28;20431;-67
2021/10/06 01:55:33;;;;;;;6.07;1.40;;;;;;;12.60;66.73;96567.06;5094601;28;20424;-65
2021/10/06 01:58:01;;;;;;;2.80;1.10;;;;;;;12.60;66.59;96566.25;5094625;28;20743;-66
2021/10/06 02:00:27;;;;;;;2.30;1.30;;;;;;;12.57;66.35;96566.59;5094860;28;20872;-64
2021/10/06 02:02:53;;;;;;;5.37;1.10;;;;;;;12.48;66.97;96568.50;5093612;28;20516;-64
2021/10/06 02:05:19;;;;;;;6.70;1.30;;;;;;;12.57;66.84;96566.59;5094654;28;20181;-66
2021/10/06 02:07:44;;;;;;;3.50;1.50;;;;;;;12.42;67.22;96577.09;5096818;28;21006;-66
2021/10/06 02:10:10;;;;;;;10.10;1.40;;;;;;;12.52;66.61;96575.03;5094910;28;20195;-65
2021/10/06 02:12:36;;;;;;;1.93;0.97;;;;;;;12.48;66.71;96581.63;5091072;28;20174;-65
2021/10/06 02:15:04;;;;;;;2.27;1.10;;;;;;;12.49;66.59;96582.44;5094397;28;20189;-65
2021/10/06 02:17:29;;;;;;;2.07;1.17;;;;;;;12.46;66.62;96580.19;5094072;28;20451;-65
2021/10/06 02:19:55;;;;;;;4.07;1.30;;;;;;;12.10;68.10;96571.16;5093918;28;20432;-66
2021/10/06 02:22:20;;;;;;;1.53;1.10;;;;;;;12.28;67.05;96574.28;5073447;28;20178;-65
2021/10/06 02:24:46;;;;;;;2.53;1.10;;;;;;;12.30;66.71;96579.34;5090195;28;20188;-65
2021/10/06 02:27:12;;;;;;;1.93;1.00;;;;;;;12.29;66.84;96581.13;5092469;28;20185;-66
2021/10/06 02:29:37;;;;;;;3.10;1.07;;;;;;;12.24;67.00;96583.50;5094095;28;20178;-66
2021/10/06 02:32:03;;;;;;;5.10;1.20;;;;;;;12.22;67.23;96587.31;5093833;28;20178;-65
2021/10/06 02:34:29;;;;;;;3.93;1.40;;;;;;;12.22;66.83;96587.31;5094008;28;20219;-65
2021/10/06 02:36:54;;;;;;;4.40;1.10;;;;;;;12.10;67.61;96587.72;5093498;28;20190;-66
2021/10/06 02:39:20;;;;;;;2.17;1.30;;;;;;;12.10;67.46;96594.78;5093298;28;20279;-65
2021/10/06 02:41:45;;;;;;;3.43;1.10;;;;;;;12.07;67.63;96582.00;5093910;28;20255;-65
2021/10/06 02:44:11;;;;;;;4.10;1.13;;;;;;;12.06;67.97;96591.69;5093866;28;20190;-67
2021/10/06 02:46:37;;;;;;;2.40;1.20;;;;;;;12.05;67.86;96597.13;5093771;28;20250;-66
2021/10/06 02:49:02;;;;;;;5.30;1.23;;;;;;;12.00;67.45;96592.38;5093403;28;20242;-65
2021/10/06 02:51:28;;;;;;;3.00;1.27;;;;;;;11.91;68.17;96594.22;5093756;28;20178;-66
2021/10/06 02:53:53;;;;;;;5.60;1.27;;;;;;;11.79;68.45;96585.97;5091774;28;20221;-65
2021/10/06 02:56:19;;;;;;;3.60;1.40;;;;;;;11.83;68.24;96589.88;5093749;28;20220;-65
2021/10/06 02:58:45;;;;;;;3.13;1.40;;;;;;;11.74;68.82;96596.16;5093424;28;20202;-65
2021/10/06 03:01:10;;;;;;;3.57;1.37;;;;;;;11.62;69.57;96602.78;5093038;28;20212;-64
2021/10/06 03:03:36;;;;;;;3.63;1.50;;;;;;;11.62;69.23;96605.41;5093398;28;20517;-65
2021/10/06 03:06:02;;;;;;;3.63;1.27;;;;;;;11.71;68.80;96604.41;5093147;28;20267;-65
2021/10/06 03:08:28;;;;;;;3.73;1.30;;;;;;;11.74;68.69;96605.84;5092972;28;20224;-64
2021/10/06 03:10:53;;;;;;;1.50;1.10;;;;;;;11.73;68.33;96612.91;5085932;28;20439;-66
2021/10/06 03:13:19;;;;;;;5.80;1.70;;;;;;;11.69;68.40;96601.13;5085587;28;20178;-67
2021/10/06 03:15:44;;;;;;;2.70;1.27;;;;;;;11.60;68.86;96615.28;5093133;28;20676;-64
2021/10/06 03:18:10;;;;;;;3.13;1.70;;;;;;;11.60;68.84;96617.91;5092497;28;20672;-66
2021/10/06 03:20:36;;;;;;;4.73;1.30;;;;;;;11.50;69.44;96616.31;5092670;28;20205;-67
2021/10/06 03:23:06;;;;;;;2.40;1.30;;;;;;;11.51;69.75;96617.94;5092689;28;20458;-68
2021/10/06 03:25:32;;;;;;;1.37;1.10;;;;;;;11.58;69.41;96631.19;5092870;28;20235;-65
2021/10/06 03:27:58;;;;;;;3.50;1.27;;;;;;;11.57;69.51;96626.94;5092618;28;20439;-67
2021/10/06 03:30:24;;;;;;;1.87;1.40;;;;;;;11.51;69.85;96631.06;5092763;28;21037;-66
2021/10/06 03:32:49;;;;;;;2.20;1.20;;;;;;;11.50;69.96;96631.25;5092579;28;20182;-66
2021/10/06 03:35:18;;;;;;;3.80;1.60;;;;;;;11.58;69.32;96628.56;5092642;28;20217;-66
2021/10/06 03:37:47;;;;;;;3.63;1.47;;;;;;;11.52;69.86;96626.66;5092692;28;20201;-66
2021/10/06 03:40:13;;;;;;;3.07;1.27;;;;;;;11.50;69.66;96636.50;5092413;28;20448;-67
2021/10/06 03:42:39;;;;;;;3.97;1.30;;;;;;;11.49;69.79;96640.91;5085586;28;20427;-66
2021/10/06 03:45:07;;;;;;;2.13;1.47;;;;;;;11.50;69.97;96639.94;5092469;28;20424;-66
2021/10/06 03:47:33;;;;;;;2.97;1.43;;;;;;;11.55;69.87;96638.59;5091545;28;20726;-66
2021/10/06 03:49:58;;;;;;;4.93;1.60;;;;;;;11.52;70.08;96635.34;5091446;28;21048;-65
2021/10/06 03:52:24;;;;;;;3.10;1.37;;;;;;;11.49;69.85;96638.28;5092656;28;20174;-65
2021/10/06 03:54:50;;;;;;;4.70;1.60;;;;;;;11.45;70.32;96644.91;5092035;28;20184;-66
2021/10/06 03:57:15;;;;;;;2.63;1.50;;;;;;;11.44;70.31;96648.50;5091932;28;20284;-65
2021/10/06 03:59:41;;;;;;;3.80;1.57;;;;;;;11.44;70.39;96645.88;5092408;28;20213;-65
2021/10/06 04:02:07;;;;;;;3.73;1.63;;;;;;;11.55;70.02;96657.78;5091862;28;20209;-65
2021/10/06 04:04:32;;;;;;;2.60;1.37;;;;;;;11.59;69.69;96655.66;5092183;28;20585;-66
2021/10/06 04:06:58;;;;;;;1.33;1.07;;;;;;;11.45;70.02;96662.44;5089056;28;20182;-66
2021/10/06 04:09:24;;;;;;;2.10;1.50;;;;;;;11.46;70.00;96658.81;5091833;28;20194;-65
2021/10/06 04:11:49;;;;;;;1.40;1.30;;;;;;;11.39;70.22;96669.19;5083793;28;20231;-64
2021/10/06 04:14:15;;;;;;;3.67;1.50;;;;;;;11.41;70.37;96667.22;5090747;28;20708;-66
2021/10/06 04:16:41;;;;;;;4.20;1.33;;;;;;;11.31;70.77;96667.41;5093081;28;20178;-66
2021/10/06 04:19:06;;;;;;;1.97;1.60;;;;;;;11.27;70.91;96670.53;5090725;28;20206;-65
2021/10/06 04:21:32;;;;;;;4.30;1.60;;;;;;;11.34;70.53;96676.75;5091810;28;20293;-65
2021/10/06 04:23:57;;;;;;;4.00;1.57;;;;;;;11.36;70.78;96670.34;5091760;28;20181;-65
2021/10/06 04:26:23;;;;;;;3.67;1.40;;;;;;;11.41;70.44;96672.44;5091811;28;20182;-66
2021/10/06 04:28:49;;;;;;;3.27;1.43;;;;;;;11.26;70.97;96674.16;5091468;28;20208;-65
2021/10/06 04:31:14;;;;;;;1.90;1.20;;;;;;;11.13;71.20;96683.38;5091352;28;20185;-65
2021/10/06 04:33:40;;;;;;;5.30;1.80;;;;;;;11.15;71.53;96685.84;5091544;28;20641;-66
2021/10/06 04:36:05;;;;;;;4.10;1.37;;;;;;;11.07;71.93;96682.22;5091602;28;20212;-67
2021/10/06 04:38:31;;;;;;;3.37;1.40;;;;;;;11.19;71.59;96690.56;5091597;28;20760;-65
2021/10/06 04:40:56;;;;;;;6.53;1.57;;;;;;;11.26;71.23;96687.25;5090794;28;20204;-65
2021/10/06 04:43:22;;;;;;;6.43;1.93;;;;;;;11.21;71.08;96688.56;5084216;28;20188;-66
2021/10/06 04:45:48;;;;;;;5.93;2.10;;;;;;;11.26;70.75;96682.00;5091344;28;20173;-65
2021/10/06 04:48:13;;;;;;;4.77;1.90;;;;;;;11.09;70.99;96682.06;5093958;28;20208;-66
2021/10/06 04:50:39;;;;;;;4.63;1.87;;;;;;;11.14;71.29;96689.44;5074417;28;20185;-66
2021/10/06 04:53:06;;;;;;;6.30;1.87;;;;;;;11.10;71.46;96699.44;5090290;28;20544;-66
2021/10/06 04:55:31;;;;;;;2.30;1.80;;;;;;;11.21;71.19;96701.69;5091692;28;20177;-65
2021/10/06 04:57:58;;;;;;;4.13;1.87;;;;;;;11.00;71.50;96702.25;5090736;28;20482;-65
2021/10/06 05:00:24;;;;;;;5.63;1.60;;;;;;;11.06;71.33;96706.00;5090964;28;20189;-64
2021/10/06 05:02:50;;;;;;;3.17;1.33;;;;;;;11.28;70.48;96704.47;5089683;28;20430;-65
2021/10/06 05:05:16;;;;;;;3.30;1.50;;;;;;;11.32;70.07;96704.97;5091430;28;20531;-65
2021/10/06 05:07:41;;;;;;;2.70;1.57;;;;;;;11.36;70.07;96701.81;5091252;28;20691;-64
2021/10/06 05:10:07;;;;;;;5.77;1.40;;;;;;;11.28;70.54;96703.66;5091181;28;20181;-66
2021/10/06 05:12:33;;;;;;;3.63;1.90;;;;;;;11.47;70.00;96702.44;5087924;28;20185;-66
2021/10/06 05:14:58;;;;;;;5.90;1.30;;;;;;;11.53;69.54;96707.81;5091770;28;20415;-64
2021/10/06 05:17:24;;;;;;;4.50;1.60;;;;;;;11.60;69.54;96712.38;5091987;28;20235;-67
2021/10/06 05:19:50;;;;;;;2.20;1.50;;;;;;;11.49;69.73;96722.25;5092342;28;20177;-67
2021/10/06 05:22:15;;;;;;;3.53;1.63;;;;;;;11.57;69.54;96718.78;5082785;28;20640;-65
2021/10/06 05:24:41;;;;;;;6.57;1.50;;;;;;;11.60;69.63;96722.88;5091574;28;20185;-65
2021/10/06 05:27:06;;;;;;;5.80;1.67;;;;;;;11.65;69.14;96731.06;5091078;28;20197;-64
2021/10/06 05:29:33;;;;;;;3.57;1.37;;;;;;;11.43;70.60;96732.63;5090399;28;20178;-66
2021/10/06 05:32:03;;;;;;;5.23;1.70;;;;;;;11.55;69.91;96738.34;5091509;28;20181;-67
2021/10/06 05:34:30;;;;;;;4.40;1.60;;;;;;;11.69;69.87;96740.25;5091779;28;20502;-66
2021/10/06 05:36:57;;;;;;;3.53;1.70;;;;;;;11.59;69.73;96737.00;5091616;28;20514;-65
2021/10/06 05:39:23;;;;;;;3.37;1.63;;;;;;;11.75;69.29;96744.78;5090983;28;20448;-65
2021/10/06 05:41:49;;;;;;;9.00;1.60;;;;;;;11.75;69.59;96744.78;5092265;28;20481;-65
2021/10/06 05:44:14;;;;;;;1.77;1.17;;;;;;;11.74;69.38;96753.66;5102807;28;20185;-65
2021/10/06 05:46:40;;;;;;;6.63;2.03;;;;;;;11.72;69.16;96750.38;5098157;28;20181;-64
2021/10/06 05:49:05;;;;;;;8.13;1.73;;;;;;;11.67;69.52;96747.47;5097391;28;20208;-66
2021/10/06 05:51:31;;;;;;;4.63;1.30;;;;;;;11.81;68.79;96741.50;5095544;28;20193;-65
2021/10/06 05:53:56;;;;;;;4.50;1.37;;;;;;;11.52;69.41;96740.31;5093460;28;20626;-66
2021/10/06 05:56:22;;;;;;;3.17;1.50;;;;;;;11.94;68.35;96750.63;5108417;28;20207;-66
2021/10/06 05:58:48;;;;;;;3.97;1.37;;;;;;;11.80;68.59;96750.38;5099524;28;20198;-66
2021/10/06 06:01:13;;;;;;;4.20;1.43;;;;;;;11.81;68.14;96759.03;5091482;28;20194;-66
2021/10/06 06:03:39;;;;;;;4.77;1.63;;;;;;;11.81;68.49;96759.88;5101128;28;20237;-67
2021/10/06 06:06:04;;;;;;;2.43;1.30;;;;;;;11.78;68.37;96759.41;5099247;28;20178;-66
2021/10/06 06:08:31;;;;;;;4.47;1.30;;;;;;;11.90;67.80;96759.84;5095825;28;20251;-66
2021/10/06 06:10:57;;;;;;;4.90;1.57;;;;;;;11.51;69.19;96767.53;5095903;28;20170;-66
2021/10/06 06:13:22;;;;;;;2.03;1.50;;;;;;;11.60;68.50;96765.69;5095963;28;20795;-66
2021/10/06 06:15:52;;;;;;;3.80;1.30;;;;;;;11.72;68.15;96766.13;5095872;28;20231;-65
2021/10/06 06:18:18;;;;;;;5.30;1.50;;;;;;;11.59;68.34;96764.06;5097670;28;20193;-65
2021/10/06 06:20:43;;;;;;;6.50;1.73;;;;;;;11.47;68.61;96771.47;5100690;28;20443;-66
2021/10/06 06:23:09;;;;;;;3.53;1.43;;;;;;;11.54;68.36;96766.38;5099037;28;20472;-66
2021/10/06 06:25:35;;;;;;;6.50;1.53;;;;;;;11.69;67.92;96774.38;5098834;28;20178;-65
2021/10/06 06:28:00;;;;;;;7.77;1.50;;;;;;;11.67;68.18;96769.28;5095443;28;20227;-66
2021/10/06 06:30:26;;;;;;;4.40;1.43;;;;;;;11.69;67.75;96779.63;5093591;28;20170;-64
2021/10/06 06:32:52;;;;;;;2.97;1.70;;;;;;;11.69;67.83;96774.38;5094716;28;20208;-66
2021/10/06 06:35:18;;;;;;;4.57;1.50;;;;;;;11.77;67.86;96782.22;5094658;28;20550;-66
2021/10/06 06:37:43;;;;;;;1.77;1.30;;;;;;;11.83;67.65;96780.72;5094094;28;20457;-65
2021/10/06 06:40:09;;;;;;;5.80;1.80;;;;;;;11.64;67.76;96792.41;5094332;28;20174;-65
2021/10/06 06:42:35;;;;;;;7.77;1.90;;;;;;;11.60;68.25;96784.06;5093827;28;20182;-65
2021/10/06 06:45:01;;;;;;;2.40;1.23;;;;;;;11.87;67.73;96795.13;5093800;28;20415;-66
2021/10/06 06:47:26;;;;;;;4.20;1.70;;;;;;;11.82;68.34;96798.28;5093243;28;20197;-66
2021/10/06 06:49:53;;;;;;;2.70;1.60;;;;;;;12.13;66.81;96792.25;5093611;28;20783;-65
2021/10/06 06:52:19;;;;;;;4.20;1.50;;;;;;;12.28;66.10;96788.88;5086893;28;20234;-66
2021/10/06 06:54:44;;;;;;;7.23;1.60;;;;;;;12.29;65.83;96795.78;5094166;28;20420;-67
2021/10/06 06:57:10;;;;;;;2.90;1.40;;;;;;;12.06;66.18;96801.81;5092268;28;20212;-67
2021/10/06 06:59:35;;;;;;;5.40;1.60;;;;;;;12.05;66.30;96805.44;5094352;28;20644;-66
2021/10/06 07:02:01;;;;;;;4.20;1.60;;;;;;;12.19;65.81;96809.13;5074088;28;20700;-65
2021/10/06 07:04:27;;;;;;;3.40;1.60;;;;;;;12.22;66.19;96813.25;5094213;28;20223;-66
2021/10/06 07:06:55;;;;;;;6.00;1.63;;;;;;;12.58;65.04;96813.50;5093890;28;20644;-64
2021/10/06 07:09:29;;;;;;;1.90;1.20;;;;;;;12.66;65.50;96815.25;5092906;28;20194;-65
2021/10/06 07:11:55;;;;;;;2.00;0.93;;;;;;;12.53;65.62;96822.91;5093715;28;20416;-65
2021/10/06 07:14:20;;;;;;;3.23;1.50;;;;;;;12.82;64.65;96832.72;5092465;28;20797;-66
2021/10/06 07:16:46;;;;;;;6.93;2.50;;;;;;;12.81;64.61;96832.91;5092309;28;20424;-64
2021/10/06 07:19:12;;;;;;;7.60;1.70;;;;;;;13.11;63.92;96819.84;5092832;28;20270;-66
2021/10/06 07:21:38;;;;;;;6.83;1.60;;;;;;;13.07;63.57;96829.91;5087292;28;20285;-66
2021/10/06 07:24:03;;;;;;;2.37;1.20;;;;;;;13.23;63.50;96823.72;5092003;28;20178;-65
2021/10/06 07:26:30;;;;;;;3.03;1.50;;;;;;;13.36;62.89;96828.34;5093871;28;20170;-66
2021/10/06 07:28:55;;;;;;;4.10;1.80;;;;;;;13.65;62.52;96834.69;5093023;28;20206;-65
2021/10/06 07:31:21;;;;;;;4.63;2.03;;;;;;;13.59;61.41;96830.94;5092235;28;20424;-64
2021/10/06 07:33:50;;;;;;;6.00;2.30;;;;;;;13.27;62.33;96838.13;5091358;28;20184;-66
2021/10/06 07:36:16;;;;;;;3.60;1.50;;;;;;;13.28;62.17;96839.75;5093002;28;20200;-66
2021/10/06 07:38:41;;;;;;;3.30;1.40;;;;;;;13.22;62.69;96851.00;5092433;28;20535;-65
2021/10/06 07:41:07;;;;;;;4.80;1.23;;;;;;;13.34;62.36;96851.38;5092945;28;20201;-65
2021/10/06 07:43:32;;;;;;;4.80;1.73;;;;;;;13.57;62.32;96855.81;5092749;28;20174;-67
2021/10/06 07:45:58;;;;;;;7.73;1.90;;;;;;;13.88;61.77;96853.00;5092725;28;20204;-64
2021/10/06 07:48:24;;;;;;;3.60;1.43;;;;;;;14.05;60.85;96858.91;5092208;28;20698;-65
2021/10/06 07:50:49;;;;;;;4.33;1.37;;;;;;;13.43;61.58;96858.22;5090980;28;20215;-67
2021/10/06 07:53:15;;;;;;;3.13;1.77;;;;;;;14.03;61.57;96860.09;5086044;28;20170;-66
2021/10/06 07:55:40;;;;;;;2.80;1.50;;;;;;;14.49;60.64;96859.84;5093148;28;20599;-66
2021/10/06 07:58:06;;;;;;;4.93;1.70;;;;;;;14.61;59.73;96859.38;5089825;28;20706;-66
2021/10/06 08:00:32;;;;;;;8.27;2.57;;;;;;;14.62;58.82;96876.84;5088533;28;20197;-66
2021/10/06 08:02:57;;;;;;;6.87;4.27;;;;;;;14.57;59.22;96870.28;5094619;28;20543;-66
2021/10/06 08:05:23;;;;;;;6.33;1.30;;;;;;;14.53;59.03;96876.94;5093603;28;20186;-68
2021/10/06 08:07:48;;;;;;;7.23;1.60;;;;;;;14.82;58.56;96883.16;5091489;28;20200;-68
2021/10/06 08:10:14;;;;;;;2.50;1.07;;;;;;;14.67;57.68;96877.09;5092766;28;20205;-68
2021/10/06 08:12:40;;;;;;;4.77;1.77;;;;;;;14.85;57.29;96876.69;5092589;28;20182;-67
2021/10/06 08:15:06;;;;;;;2.80;1.90;;;;;;;15.07;56.89;96882.78;5091962;28;20182;-66
2021/10/06 08:17:31;;;;;;;2.97;1.50;;;;;;;15.17;55.64;96883.28;5091940;28;20201;-66
2021/10/06 08:19:57;;;;;;;6.87;1.30;;;;;;;15.31;54.40;96880.78;5092119;28;20427;-66
2021/10/06 08:22:23;;;;;;;4.07;1.70;;;;;;;15.75;53.40;96882.31;5084904;28;20540;-67
2021/10/06 08:24:49;;;;;;;3.03;1.33;;;;;;;15.38;53.88;96889.56;5092460;28;20177;-67
2021/10/06 08:27:15;;;;;;;4.37;1.07;;;;;;;15.48;53.43;96884.78;5095026;28;20574;-66
2021/10/06 08:29:41;;;;;;;3.87;1.53;;;;;;;15.38;53.82;96891.38;5092112;28;20428;-67
2021/10/06 08:32:07;;;;;;;2.53;1.50;;;;;;;15.34;53.85;96904.16;5091786;28;20472;-65
2021/10/06 08:34:32;;;;;;;3.00;1.20;;;;;;;15.28;53.90;96900.47;5091577;28;20200;-65
2021/10/06 08:36:58;;;;;;;7.03;1.50;;;;;;;15.06;54.23;96912.81;5091570;28;20204;-66
2021/10/06 08:39:25;;;;;;;3.53;1.50;;;;;;;14.87;55.05;96911.63;5091437;28;20202;-66
2021/10/06 08:41:51;;;;;;;6.47;1.57;;;;;;;14.99;55.10;96911.97;5091960;28;20448;-65
2021/10/06 08:44:16;;;;;;;4.77;1.43;;;;;;;14.53;56.07;96908.56;5091963;28;21064;-64
2021/10/06 08:46:43;;;;;;;4.37;1.20;;;;;;;14.25;56.98;96911.88;5091871;28;20684;-67
2021/10/06 08:49:08;;;;;;;4.23;1.80;;;;;;;14.10;57.46;96921.63;5091647;28;20207;-66
2021/10/06 08:51:34;;;;;;;12.57;3.33;;;;;;;14.44;57.61;96915.75;5085214;28;20492;-66
2021/10/06 08:54:00;;;;;;;4.40;1.60;;;;;;;14.48;57.33;96912.75;5090229;28;20188;-68
2021/10/06 08:56:28;;;;;;;4.30;2.03;;;;;;;14.50;56.98;96914.22;5092879;28;20937;-66
2021/10/06 08:58:53;;;;;;;6.17;2.10;;;;;;;14.28;57.27;96924.69;5092829;28;20625;-67
2021/10/06 09:01:27;;;;;;;12.80;3.27;;;;;;;14.53;56.74;96919.13;5090992;28;20505;-66
2021/10/06 09:03:57;;;;;;;2.20;1.60;;;;;;;14.85;55.84;96919.72;5091712;28;20182;-66
2021/10/06 09:06:37;;;;;;;5.53;2.13;;;;;;;15.06;55.38;96923.38;5091183;28;20580;-66
2021/10/06 09:09:13;;;;;;;5.13;1.53;;;;;;;14.58;55.09;96929.94;5089858;28;20824;-64
2021/10/06 09:11:39;;;;;;;5.93;1.70;;;;;;;15.06;53.74;96928.66;5091077;28;20952;-65
2021/10/06 09:14:06;;;;;;;5.50;1.13;;;;;;;15.03;54.07;96931.66;5090517;28;20408;-66
2021/10/06 09:16:37;;;;;;;4.13;1.83;;;;;;;14.51;55.35;96930.88;5091242;28;20419;-66
2021/10/06 09:19:03;;;;;;;4.17;1.33;;;;;;;14.32;55.28;96927.78;5089675;28;20444;-66
2021/10/06 09:21:29;;;;;;;2.77;1.70;;;;;;;14.70;54.46;96925.03;5086148;28;20508;-64
2021/10/06 09:23:55;;;;;;;5.03;1.20;;;;;;;15.09;53.29;96933.56;5087993;28;20423;-65
2021/10/06 09:26:21;;;;;;;5.70;1.33;;;;;;;15.23;52.04;96917.88;5090691;28;20180;-66
2021/10/06 09:28:50;;;;;;;3.00;1.03;;;;;;;15.34;51.91;96914.72;5088814;28;20436;-66
2021/10/06 09:31:26;;;;;;;3.70;1.33;;;;;;;15.30;50.96;96914.28;5090710;28;20443;-67
2021/10/06 09:33:54;;;;;;;5.10;1.87;;;;;;;15.12;51.48;96922.63;5092692;28;20407;-66
2021/10/06 09:36:31;;;;;;;6.50;1.60;;;;;;;14.87;51.67;96919.53;5090920;28;20976;-65
2021/10/06 09:39:06;;;;;;;4.23;1.33;;;;;;;14.82;51.17;96928.00;5090849;28;20442;-65
2021/10/06 09:41:49;;;;;;;3.77;1.70;;;;;;;15.89;49.03;96922.06;5090676;28;20440;-66
2021/10/06 09:44:20;;;;;;;4.00;1.20;;;;;;;14.61;50.40;96920.03;5082597;28;20779;-67
2021/10/06 09:46:57;;;;;;;3.03;1.77;;;;;;;15.34;48.96;96933.19;5094828;28;20863;-66
2021/10/06 09:49:34;;;;;;;5.30;1.50;;;;;;;15.26;49.18;96935.94;5094494;28;20523;-64
2021/10/06 09:52:16;;;;;;;3.53;1.27;;;;;;;15.34;48.90;96930.56;5087658;28;20495;-66
2021/10/06 09:54:56;;;;;;;2.60;0.90;;;;;;;15.75;47.98;96935.16;5094554;28;20484;-68
2021/10/06 09:57:52;;;;;;;6.93;1.10;;;;;;;15.51;48.43;96934.56;5093268;28;20411;-66
2021/10/06 10:00:19;;;;;;;4.80;1.13;;;;;;;15.02;50.11;96944.06;5093050;28;20420;-67
2021/10/06 10:02:45;;;;;;;2.43;1.03;;;;;;;14.93;51.01;96939.06;5090055;28;20420;-68
2021/10/06 10:05:12;;;;;;;4.27;1.33;;;;;;;14.53;50.92;96953.41;5094612;28;20438;-66
2021/10/06 10:07:38;;;;;;;5.37;1.60;;;;;;;15.56;49.03;96956.94;5094049;28;20335;-66
2021/10/06 10:10:06;;;;;;;4.37;1.73;;;;;;;15.14;49.46;96957.56;5092876;28;20527;-67
2021/10/06 10:12:32;;;;;;;3.10;1.60;;;;;;;15.49;48.90;96960.34;5094295;28;20420;-67
2021/10/06 10:14:58;;;;;;;6.13;1.50;;;;;;;15.57;48.58;96958.59;5092778;28;20419;-66
2021/10/06 10:17:24;;;;;;;2.07;1.20;;;;;;;16.04;47.81;96959.78;5094082;28;20186;-66
2021/10/06 10:20:02;;;;;;;3.93;2.27;;;;;;;16.32;47.80;96961.59;5092941;28;20498;-66
2021/10/06 10:22:32;;;;;;;5.33;1.63;;;;;;;15.70;48.64;96971.91;5087141;28;20434;-65
2021/10/06 10:25:17;;;;;;;4.20;1.20;;;;;;;15.81;48.43;96975.88;5094060;28;20447;-67
2021/10/06 10:28:02;;;;;;;1.73;1.03;;;;;;;15.51;49.58;96971.53;5093359;28;20443;-66
2021/10/06 10:30:29;;;;;;;12.73;4.90;;;;;;;16.45;47.16;96962.66;5093950;28;20427;-66
2021/10/06 10:32:55;;;;;;;4.30;1.33;;;;;;;15.87;47.91;96975.13;5092398;28;20419;-66
2021/10/06 10:35:39;;;;;;;6.10;1.40;;;;;;;15.50;49.93;96983.09;5093563;28;20435;-69
2021/10/06 10:38:06;;;;;;;3.93;1.10;;;;;;;15.35;51.20;96990.28;5093271;28;20526;-68
2021/10/06 10:40:32;;;;;;;4.43;1.33;;;;;;;15.44;53.98;96993.59;5095050;28;20455;-67
2021/10/06 10:43:14;;;;;;;4.60;1.03;;;;;;;15.01;54.25;96999.66;5094876;28;20427;-66
2021/10/06 10:45:44;;;;;;;2.60;1.20;;;;;;;14.78;56.05;97002.44;5094536;28;20205;-65
2021/10/06 10:48:17;;;;;;;2.87;1.07;;;;;;;15.20;55.03;96999.06;5093318;28;20431;-65
2021/10/06 10:50:42;;;;;;;3.47;1.20;;;;;;;14.83;56.20;97003.50;5093534;28;20436;-66
2021/10/06 10:53:09;;;;;;;3.33;1.20;;;;;;;15.57;54.31;97000.84;5086494;28;20462;-66
2021/10/06 10:55:47;;;;;;;4.63;1.80;;;;;;;16.32;53.75;96995.97;5093778;28;20188;-67
2021/10/06 10:58:30;;;;;;;4.43;1.30;;;;;;;16.67;51.87;96988.00;5093194;28;20431;-68
2021/10/06 11:01:00;;;;;;;3.33;1.23;;;;;;;16.31;50.88;96986.38;5092117;28;20462;-66
2021/10/06 11:03:26;;;;;;;3.03;1.20;;;;;;;15.62;51.79;96990.53;5092494;28;20496;-65
2021/10/06 11:05:53;;;;;;;4.07;1.77;;;;;;;15.58;51.93;96995.34;5093513;28;20424;-66
2021/10/06 11:08:35;;;;;;;4.10;1.60;;;;;;;15.51;51.93;96995.28;5093428;28;20451;-66
2021/10/06 11:11:10;;;;;;;3.87;1.20;;;;;;;15.95;51.63;97001.38;5093367;28;20444;-65
2021/10/06 11:13:48;;;;;;;8.97;1.60;;;;;;;15.76;50.37;97008.09;5095371;28;20420;-65
2021/10/06 11:16:14;;;;;;;3.37;1.00;;;;;;;16.36;49.16;96996.38;5086568;28;20472;-65
2021/10/06 11:18:56;;;;;;;4.73;1.30;;;;;;;15.62;48.89;96999.25;5097334;28;20475;-66
2021/10/06 11:21:41;;;;;;;2.00;1.00;;;;;;;15.60;48.98;96995.19;5084615;28;20271;-66
2021/10/06 11:24:18;;;;;;;5.77;1.50;;;;;;;15.76;48.04;96984.34;5094630;28;20977;-66
2021/10/06 11:26:44;;;;;;;4.13;1.53;;;;;;;15.34;47.95;96997.38;5093410;28;20431;-66
2021/10/06 11:29:10;;;;;;;3.10;1.40;;;;;;;15.69;47.80;96986.13;5092697;28;20957;-66
2021/10/06 11:31:37;;;;;;;3.07;1.23;;;;;;;15.42;48.47;96991.16;5094974;28;20470;-66
2021/10/06 11:34:04;;;;;;;3.77;1.53;;;;;;;16.35;46.57;96985.00;5100830;28;20174;-67